Friday, October 24, 2014
15:31 UTC
  |  Log In   |  Register Free
Airport Search:

Faribault Municipal Airport
(KFBL)

Faribault Municipal Airport Diagram
No Airport Diagram Available

FAA data valid effective September 18, 2014 - November 13, 2014 (unless otherwise noted).

 
 
 
 
 
 
 
 
 
 
 
 
 
 

Current Aviation Weather for Faribault Municipal Airport (KFBL)

The most recent METAR observation for KFBL was updated at: 1514
METAR Summary (Translated METAR)
KFBL
241454Z AUTO 17007KT 10SM BKN050 13/11 A2989 RMK AO2
KOWA
241455Z AUTO 16010G16KT 10SM CLR 13/10 A2990 RMK AO2
(12.5 nm SE from KFBL)
KSYN
241513Z AUTO 16008KT 10SM SCT041 SCT047 BKN060 14/10 A2988 RMK AO2 T01390100
(15.5 nm NE from KFBL)
TAF
No TAF information found within 50 nm of KFBL
  Airport Weather Conditions for KFBL

 Current Weather at FBL
55° F
Mostly Cloudy
South winds at 8.1 mph
FBL NOAA Radar

Pressure: 29.89 in
Humidity: 88%
Wind: South at 8.1 MPH (7 KT)
Dew Point: 51.8°F
Visibility: 10.00 mi


Airport Weather Forecast for KFBL

Translated METAR and TAF for KFBL
Translated METAR for KFBL (1526 UTC 24 October 2014)
found at http://aviationweather.gov/adds/metars/
 
METAR text: KFBL 241513Z AUTO 17010KT 10SM SCT050 14/11 A2989 RMK AO2
Conditions at: KFBL (FARIBAULT MUNI , MN, US) observed 1513 UTC 24 October 2014
Temperature: 14.0°C (57°F)
Dewpoint: 11.0°C (52°F) [RH = 82%]
Pressure (altimeter): 29.89 inches Hg (1012.3 mb)
Winds: from the S (170 degrees) at 12 MPH (10 knots; 5.2 m/s)
Visibility: 10 or more miles (16+ km)
Ceiling: at least 12,000 feet AGL
Clouds: scattered clouds at 5000 feet AGL
Weather: automated observation with no human augmentation;
there may or may not be significant weather present at this time
Translated TAF for KFBL

There is no translated TAF available for this airport

Find All Airport Services Find A Hotel Find A Rental Car Find A Golf Course Find A Restaurant $100 Hamburger



FBO's on the Field
FBO Company Facility Photos Services Transportation Aviation Fuel Prices: Prices include tax
Catering Weather Repair Courtesy Rental Type 100LL JetA JetA+ MOGAS 8087
 
Quality Aviation

This FBO has not yet been rated
FS:Independent
Last Updated: Oct-03
Login to update fuel prices
SS:
Contact Quality AviationMore FBO Information
 
Add another FBO Facility Photos Catering Weather Repair Courtesy Rental Type 100LL JetA JetA+ MOGAS 8087
Services Transportation Aviation Fuel Prices: Prices include tax


model-print
model-print
model-print
model-print